Time;durP1;ratioP1;P1;durP2;ratioP2;P2;SDS_P1;SDS_P2;PMS_P1;PMS_P2;Temp;Humidity;BMP_temperature;BMP_pressure;BME280_temperature;BME280_humidity;BME280_pressure;Samples;Min_cycle;Max_cycle;Signal;HPM_P1;HPM_P2
2022/05/05 00:00:10;;;;;;;0.40;0.40;;;15.00;99.90;;;;;;5006024;28;20689;-81
2022/05/05 00:02:35;;;;;;;0.57;0.57;;;15.00;99.90;;;;;;4998934;28;20202;-81
2022/05/05 00:05:02;;;;;;;0.50;0.33;;;14.90;99.90;;;;;;5000170;28;20184;-81
2022/05/05 00:07:27;;;;;;;0.43;0.43;;;15.10;99.90;;;;;;4999838;28;20220;-81
2022/05/05 00:09:53;;;;;;;0.37;0.37;;;15.10;99.90;;;;;;4999543;28;20557;-81
2022/05/05 00:15:04;;;;;;;0.80;0.80;;;15.30;99.90;;;;;;4999308;28;20679;-81
2022/05/05 00:17:32;;;;;;;0.90;0.40;;;15.20;99.90;;;;;;5004994;28;20188;-81
2022/05/05 00:19:57;;;;;;;0.30;0.30;;;15.10;99.90;;;;;;5013322;28;20178;-81
2022/05/05 00:22:23;;;;;;;0.37;0.30;;;15.10;99.90;;;;;;4998438;28;20206;-81
2022/05/05 00:24:48;;;;;;;2.53;0.77;;;15.00;99.90;;;;;;5016614;28;20222;-81
2022/05/05 00:27:14;;;;;;;0.50;0.50;;;15.10;99.90;;;;;;5004996;28;20205;-81
2022/05/05 00:29:39;;;;;;;0.63;0.63;;;15.00;99.90;;;;;;5012807;28;20681;-81
2022/05/05 00:32:05;;;;;;;0.50;0.40;;;14.90;99.90;;;;;;4997476;28;20254;-81
2022/05/05 00:34:31;;;;;;;0.60;0.40;;;14.70;99.90;;;;;;5005860;28;20193;-81
2022/05/05 00:36:56;;;;;;;0.30;0.30;;;14.70;99.90;;;;;;5014039;28;21121;-81
2022/05/05 00:39:22;;;;;;;0.20;0.20;;;14.70;99.90;;;;;;5004827;28;20187;-81
2022/05/05 00:41:48;;;;;;;0.33;0.30;;;14.70;99.90;;;;;;5003331;28;20225;-81
2022/05/05 00:44:15;;;;;;;0.40;0.40;;;14.70;99.90;;;;;;4999062;28;20194;-81
2022/05/05 00:46:47;;;;;;;0.20;0.20;;;14.80;99.90;;;;;;4998947;28;20199;-81
2022/05/05 00:49:12;;;;;;;0.50;0.37;;;14.90;99.90;;;;;;5004435;28;20183;-81
2022/05/05 00:51:38;;;;;;;0.53;0.53;;;14.90;99.90;;;;;;5013231;28;20710;-81
2022/05/05 00:54:03;;;;;;;0.33;0.33;;;14.80;99.90;;;;;;5005262;28;20191;-81
2022/05/05 00:56:29;;;;;;;0.43;0.43;;;14.70;99.90;;;;;;4998705;28;20195;-81
2022/05/05 00:58:56;;;;;;;1.63;1.50;;;14.60;99.90;;;;;;4998357;28;20206;-81
2022/05/05 01:01:23;;;;;;;1.13;0.50;;;14.60;99.90;;;;;;4999280;28;20192;-81
2022/05/05 01:03:49;;;;;;;0.53;0.53;;;14.60;99.90;;;;;;4998286;28;20223;-81
2022/05/05 01:06:15;;;;;;;0.30;0.30;;;14.70;99.90;;;;;;5015508;28;20263;-81
2022/05/05 01:08:41;;;;;;;0.60;0.43;;;14.80;99.90;;;;;;4998558;28;20211;-81
2022/05/05 01:11:07;;;;;;;2.83;0.40;;;14.80;99.90;;;;;;5004927;28;20197;-81
2022/05/05 01:13:36;;;;;;;0.30;0.23;;;14.70;99.90;;;;;;4997681;28;20215;-81
2022/05/05 01:16:04;;;;;;;1.60;0.83;;;14.60;99.90;;;;;;5013477;28;20252;-80
2022/05/05 01:18:29;;;;;;;0.47;0.47;;;14.60;99.90;;;;;;5004943;28;20182;-81
2022/05/05 01:20:55;;;;;;;0.33;0.30;;;14.70;99.90;;;;;;4997455;28;20199;-81
2022/05/05 01:23:21;;;;;;;0.40;0.40;;;14.60;99.90;;;;;;4998620;28;20656;-81
2022/05/05 01:28:33;;;;;;;1.80;1.60;;;14.60;99.90;;;;;;4998658;28;20406;-81
2022/05/05 01:30:59;;;;;;;0.57;0.57;;;14.50;99.90;;;;;;4998598;28;20699;-81
2022/05/05 01:33:27;;;;;;;0.20;0.20;;;14.40;99.90;;;;;;4996735;28;20211;-81
2022/05/05 01:35:55;;;;;;;0.27;0.27;;;14.40;99.90;;;;;;5004355;28;20183;-81
2022/05/05 01:38:22;;;;;;;0.83;0.70;;;14.50;99.90;;;;;;4997906;28;20199;-81
2022/05/05 01:40:48;;;;;;;0.20;0.20;;;14.40;99.90;;;;;;4997917;28;20195;-81
2022/05/05 01:43:19;;;;;;;0.70;0.70;;;14.40;99.90;;;;;;5003051;28;20746;-81
2022/05/05 01:45:46;;;;;;;0.60;0.60;;;14.30;99.90;;;;;;4998318;28;21530;-81
2022/05/05 01:48:12;;;;;;;1.00;0.73;;;14.30;99.90;;;;;;5007831;28;20212;-81
2022/05/05 01:50:38;;;;;;;0.67;0.50;;;14.30;99.90;;;;;;5002131;28;20236;-81
2022/05/05 01:53:05;;;;;;;2.53;1.07;;;14.40;99.90;;;;;;5017046;28;20211;-81
2022/05/05 01:55:31;;;;;;;0.30;0.30;;;14.40;99.90;;;;;;5007715;28;20220;-81
2022/05/05 01:57:58;;;;;;;1.50;1.03;;;14.30;99.90;;;;;;5006466;28;20209;-81
2022/05/05 02:00:24;;;;;;;0.73;0.40;;;14.30;99.90;;;;;;5003173;28;20187;-81
2022/05/05 02:02:50;;;;;;;2.37;2.00;;;14.30;99.90;;;;;;5007318;28;20205;-81
2022/05/05 02:05:19;;;;;;;1.17;1.17;;;14.30;99.90;;;;;;5007293;28;20191;-81
2022/05/05 02:07:46;;;;;;;0.30;0.30;;;14.30;99.90;;;;;;5008209;28;20221;-81
2022/05/05 02:10:16;;;;;;;0.40;0.40;;;14.50;99.90;;;;;;5016277;28;20190;-81
2022/05/05 02:12:43;;;;;;;0.53;0.53;;;14.60;99.90;;;;;;5001302;28;20577;-81
2022/05/05 02:15:11;;;;;;;0.70;0.70;;;14.70;99.90;;;;;;5000931;28;20269;-81
2022/05/05 02:17:37;;;;;;;0.77;0.60;;;14.70;99.90;;;;;;5001356;28;20569;-81
2022/05/05 02:20:05;;;;;;;1.37;0.73;;;14.60;99.90;;;;;;5018990;28;20275;-81
2022/05/05 02:22:31;;;;;;;1.83;1.43;;;14.60;99.90;;;;;;5000841;28;20218;-81
2022/05/05 02:24:57;;;;;;;0.70;0.70;;;14.70;99.90;;;;;;5006519;28;20192;-81
2022/05/05 02:27:23;;;;;;;0.47;0.43;;;14.60;99.90;;;;;;5006876;28;20230;-81
2022/05/05 02:29:50;;;;;;;0.20;0.20;;;14.70;99.90;;;;;;5001400;28;20649;-81
2022/05/05 02:32:17;;;;;;;0.20;0.20;;;14.80;99.90;;;;;;5001680;28;20210;-81
2022/05/05 02:34:46;;;;;;;0.50;0.50;;;15.00;99.90;;;;;;5000440;28;20284;-81
2022/05/05 02:39:56;;;;;;;0.97;0.80;;;15.00;99.90;;;;;;5002049;28;20213;-81
2022/05/05 02:42:22;;;;;;;2.10;0.40;;;14.90;99.90;;;;;;5001267;28;20214;-81
2022/05/05 02:44:47;;;;;;;0.70;0.40;;;15.00;99.90;;;;;;5000467;28;20195;-81
2022/05/05 02:47:13;;;;;;;0.97;0.87;;;15.10;99.90;;;;;;5001173;28;20261;-81
2022/05/05 02:49:38;;;;;;;0.30;0.30;;;15.00;99.90;;;;;;5001740;28;20253;-82
2022/05/05 02:52:05;;;;;;;0.63;0.43;;;15.10;99.90;;;;;;5005490;28;20215;-81
2022/05/05 02:57:16;;;;;;;0.60;0.60;;;15.30;99.90;;;;;;5001294;28;20191;-81
2022/05/05 02:59:42;;;;;;;0.30;0.30;;;15.20;99.90;;;;;;4997318;28;20211;-81
2022/05/05 03:02:08;;;;;;;0.20;0.20;;;15.30;99.90;;;;;;5001608;28;20218;-81
2022/05/05 03:04:34;;;;;;;0.90;0.57;;;15.30;99.90;;;;;;5006736;28;20204;-80
2022/05/05 03:07:00;;;;;;;0.30;0.23;;;15.30;99.90;;;;;;5000202;28;20222;-81
2022/05/05 03:09:26;;;;;;;0.70;0.50;;;15.30;99.90;;;;;;4997896;28;20191;-81
2022/05/05 03:11:51;;;;;;;0.63;0.50;;;15.00;99.90;;;;;;5015355;28;20216;-82
2022/05/05 03:14:17;;;;;;;0.60;0.60;;;15.00;99.90;;;;;;5016145;28;20193;-81
2022/05/05 03:16:42;;;;;;;1.03;0.93;;;14.70;99.90;;;;;;5000451;28;21027;-81
2022/05/05 03:19:08;;;;;;;0.97;0.97;;;14.40;99.90;;;;;;5001480;28;20230;-81
2022/05/05 03:21:33;;;;;;;0.67;0.67;;;14.30;99.90;;;;;;5015351;28;20188;-81
2022/05/05 03:23:59;;;;;;;2.00;1.00;;;14.40;99.90;;;;;;4999175;28;20234;-81
2022/05/05 03:26:25;;;;;;;0.40;0.40;;;14.40;99.90;;;;;;5000857;28;20191;-81
2022/05/05 03:28:50;;;;;;;0.73;0.70;;;14.50;99.90;;;;;;5005879;28;20214;-81
2022/05/05 03:31:16;;;;;;;0.57;0.43;;;14.60;99.90;;;;;;5007075;28;20602;-81
2022/05/05 03:33:41;;;;;;;0.70;0.70;;;14.50;99.90;;;;;;4999561;28;20222;-81
2022/05/05 03:36:07;;;;;;;1.13;0.80;;;14.60;99.90;;;;;;5005356;28;20667;-81
2022/05/05 03:38:33;;;;;;;0.70;0.70;;;14.70;99.90;;;;;;5005720;28;20186;-81
2022/05/05 03:40:58;;;;;;;0.80;0.80;;;14.20;99.90;;;;;;5000134;28;20191;-81
2022/05/05 03:43:24;;;;;;;1.90;1.07;;;13.80;99.90;;;;;;5006816;28;20238;-81
2022/05/05 03:45:49;;;;;;;0.77;0.77;;;13.70;99.90;;;;;;5015114;28;20193;-81
2022/05/05 03:48:15;;;;;;;0.80;0.77;;;13.60;99.90;;;;;;5000613;28;20214;-81
2022/05/05 03:50:41;;;;;;;0.50;0.50;;;13.80;99.90;;;;;;5000677;28;20325;-81
2022/05/05 03:53:06;;;;;;;6.30;1.23;;;14.00;99.90;;;;;;5004669;28;20208;-81
2022/05/05 03:55:32;;;;;;;1.70;0.77;;;14.00;99.90;;;;;;5015297;28;20186;-81
2022/05/05 03:57:58;;;;;;;0.90;0.90;;;14.10;99.90;;;;;;4998226;28;21122;-81
2022/05/05 04:00:23;;;;;;;0.70;0.70;;;14.30;99.90;;;;;;5005913;28;20521;-81
2022/05/05 04:05:34;;;;;;;0.63;0.63;;;14.50;99.90;;;;;;5000096;28;20248;-81
2022/05/05 04:08:02;;;;;;;1.53;0.97;;;14.60;99.90;;;;;;5016184;28;20222;-81
2022/05/05 04:10:27;;;;;;;1.03;0.97;;;14.60;99.90;;;;;;4999534;28;20180;-81
2022/05/05 04:12:54;;;;;;;1.47;1.40;;;14.70;99.90;;;;;;5005858;28;20211;-81
2022/05/05 04:15:20;;;;;;;0.70;0.70;;;14.80;99.90;;;;;;4999991;28;20182;-81
2022/05/05 04:17:45;;;;;;;0.53;0.53;;;14.80;99.90;;;;;;4998087;28;20188;-83
2022/05/05 04:20:11;;;;;;;0.50;0.50;;;14.80;99.90;;;;;;5004670;28;20698;-84
2022/05/05 04:22:37;;;;;;;0.50;0.50;;;14.80;99.90;;;;;;4998754;28;20203;-84
2022/05/05 04:25:03;;;;;;;0.83;0.83;;;14.80;99.90;;;;;;5004996;28;20195;-83
2022/05/05 04:27:29;;;;;;;0.43;0.43;;;14.80;99.90;;;;;;5004970;28;20214;-83
2022/05/05 04:29:55;;;;;;;0.97;0.90;;;14.80;99.90;;;;;;4998282;28;20661;-83
2022/05/05 04:32:20;;;;;;;0.47;0.47;;;14.80;99.90;;;;;;4997818;28;20196;-83
2022/05/05 04:34:47;;;;;;;0.60;0.60;;;14.80;99.90;;;;;;5014251;28;20220;-84
2022/05/05 04:37:13;;;;;;;1.20;1.00;;;14.90;99.90;;;;;;5004462;28;20214;-84
2022/05/05 04:39:39;;;;;;;0.80;0.73;;;14.80;99.90;;;;;;4997222;28;20281;-84
2022/05/05 04:42:05;;;;;;;1.70;0.90;;;14.90;99.90;;;;;;4997784;28;20280;-81
2022/05/05 04:44:31;;;;;;;0.90;0.90;;;14.90;99.90;;;;;;5004520;28;20202;-81
2022/05/05 04:46:56;;;;;;;0.93;0.53;;;14.90;99.90;;;;;;4997836;28;20199;-81
2022/05/05 04:49:21;;;;;;;1.13;0.77;;;14.80;99.90;;;;;;5005076;28;20217;-80
2022/05/05 04:51:47;;;;;;;0.40;0.40;;;14.90;99.90;;;;;;4997451;28;20207;-80
2022/05/05 04:54:12;;;;;;;0.40;0.40;;;14.90;99.90;;;;;;4998158;28;20183;-81
2022/05/05 04:56:38;;;;;;;0.70;0.70;;;14.90;99.90;;;;;;5013878;28;20189;-81
2022/05/05 04:59:04;;;;;;;0.80;0.80;;;15.00;99.90;;;;;;5015827;28;20549;-81
2022/05/05 05:01:29;;;;;;;1.10;0.67;;;15.00;99.90;;;;;;5012841;28;20186;-81
2022/05/05 05:03:55;;;;;;;4.93;1.00;;;15.00;99.90;;;;;;4998619;28;20252;-80
2022/05/05 05:06:20;;;;;;;1.80;1.00;;;15.00;99.90;;;;;;4999686;28;21249;-82
2022/05/05 05:08:46;;;;;;;1.93;0.83;;;15.10;99.90;;;;;;5004956;28;20753;-82
2022/05/05 05:11:12;;;;;;;0.40;0.40;;;15.10;99.90;;;;;;5004119;28;20519;-81
2022/05/05 05:13:37;;;;;;;0.97;0.80;;;15.00;99.90;;;;;;5009649;28;20241;-79
2022/05/05 05:16:03;;;;;;;1.43;1.00;;;14.90;99.90;;;;;;5012570;28;20171;-79
2022/05/05 05:18:28;;;;;;;0.63;0.60;;;14.90;99.90;;;;;;4998560;28;20186;-79
2022/05/05 05:20:54;;;;;;;0.63;0.63;;;14.80;99.90;;;;;;4997123;28;20670;-79
2022/05/05 05:23:20;;;;;;;1.33;0.50;;;14.80;99.90;;;;;;5005912;28;20598;-79
2022/05/05 05:25:45;;;;;;;0.80;0.80;;;14.70;99.90;;;;;;5002414;28;20210;-79
2022/05/05 05:28:12;;;;;;;0.27;0.27;;;14.80;99.90;;;;;;5001345;28;20240;-78
2022/05/05 05:30:39;;;;;;;1.00;0.90;;;14.80;99.90;;;;;;5002329;28;20702;-80
2022/05/05 05:33:04;;;;;;;0.50;0.50;;;14.70;99.90;;;;;;5001252;28;20203;-82
2022/05/05 05:35:30;;;;;;;0.30;0.30;;;14.60;99.90;;;;;;5005902;28;20196;-83
2022/05/05 05:37:56;;;;;;;1.13;0.50;;;14.70;99.90;;;;;;5013916;28;20298;-82
2022/05/05 05:40:21;;;;;;;1.03;0.93;;;14.80;99.90;;;;;;5001052;28;20190;-81
2022/05/05 05:42:47;;;;;;;0.50;0.50;;;14.80;99.90;;;;;;5005392;28;20244;-82
2022/05/05 05:45:12;;;;;;;1.33;1.23;;;14.80;99.90;;;;;;5005488;28;20582;-84
2022/05/05 05:47:38;;;;;;;0.83;0.83;;;14.90;99.90;;;;;;5004154;28;20206;-84
2022/05/05 05:50:04;;;;;;;0.60;0.53;;;15.00;99.90;;;;;;5004642;28;20184;-84
2022/05/05 05:52:29;;;;;;;0.90;0.70;;;14.90;99.90;;;;;;5014776;28;20206;-84
2022/05/05 05:54:55;;;;;;;1.33;0.93;;;15.00;99.90;;;;;;4999440;28;20201;-84
2022/05/05 05:57:21;;;;;;;0.67;0.67;;;15.00;99.90;;;;;;4998732;28;20182;-83
2022/05/05 05:59:46;;;;;;;0.30;0.30;;;15.00;99.90;;;;;;5006532;28;20258;-84
2022/05/05 06:04:56;;;;;;;0.50;0.43;;;15.10;99.90;;;;;;5001851;28;20196;-81
2022/05/05 06:07:21;;;;;;;0.50;0.50;;;15.00;99.90;;;;;;5014258;28;20207;-80
2022/05/05 06:09:47;;;;;;;0.73;0.50;;;15.00;99.90;;;;;;5014140;28;20180;-80
2022/05/05 06:12:13;;;;;;;1.20;0.40;;;15.10;99.90;;;;;;4998989;28;20202;-80
2022/05/05 06:14:38;;;;;;;0.50;0.50;;;15.10;99.90;;;;;;5013921;28;20195;-82
2022/05/05 06:17:04;;;;;;;0.77;0.77;;;15.10;99.90;;;;;;4999576;28;20978;-83
2022/05/05 06:19:30;;;;;;;0.30;0.30;;;15.20;99.90;;;;;;5000142;28;20551;-83
2022/05/05 06:21:57;;;;;;;1.00;0.97;;;14.90;99.90;;;;;;5004418;28;20209;-83
2022/05/05 06:24:23;;;;;;;1.30;0.47;;;15.10;99.90;;;;;;4997946;28;20308;-82
2022/05/05 06:26:48;;;;;;;0.43;0.43;;;15.20;99.90;;;;;;5015117;28;21161;-83
2022/05/05 06:29:14;;;;;;;0.53;0.53;;;15.20;99.90;;;;;;4999791;28;20295;-83
2022/05/05 06:31:40;;;;;;;0.40;0.40;;;15.20;99.90;;;;;;4999787;28;20256;-80
2022/05/05 06:34:05;;;;;;;1.00;0.97;;;15.10;99.90;;;;;;5001170;28;20262;-83
2022/05/05 06:36:31;;;;;;;1.50;1.40;;;15.10;99.90;;;;;;5000491;28;20229;-80
2022/05/05 06:38:56;;;;;;;0.87;0.80;;;15.00;99.90;;;;;;5015556;28;20339;-82
2022/05/05 06:41:22;;;;;;;0.50;0.50;;;14.90;99.90;;;;;;4996464;28;20714;-82
2022/05/05 06:43:47;;;;;;;1.53;1.43;;;14.90;99.90;;;;;;5000616;28;20821;-82
2022/05/05 06:46:13;;;;;;;0.73;0.70;;;14.90;99.90;;;;;;4997938;28;20175;-82
2022/05/05 06:48:38;;;;;;;0.60;0.60;;;14.80;99.90;;;;;;5001057;28;20210;-82
2022/05/05 06:51:04;;;;;;;1.40;1.03;;;14.80;99.90;;;;;;5001411;28;20218;-82
2022/05/05 06:53:30;;;;;;;0.70;0.63;;;14.70;99.90;;;;;;5002658;28;20206;-82
2022/05/05 06:55:58;;;;;;;1.70;1.57;;;14.80;99.90;;;;;;5003966;28;20185;-83
2022/05/05 06:58:25;;;;;;;0.97;0.80;;;14.80;99.90;;;;;;5000420;28;21293;-82
2022/05/05 07:03:35;;;;;;;0.93;0.93;;;14.50;99.90;;;;;;4998293;28;20235;-81
2022/05/05 07:06:01;;;;;;;0.50;0.50;;;14.40;99.90;;;;;;4998919;28;20183;-80
2022/05/05 07:08:27;;;;;;;0.97;0.57;;;14.40;99.90;;;;;;4998806;28;20284;-81
2022/05/05 07:10:53;;;;;;;1.83;1.27;;;14.30;99.90;;;;;;5004199;28;20176;-81
2022/05/05 07:13:23;;;;;;;1.00;1.00;;;14.30;99.90;;;;;;4998460;28;20226;-81
2022/05/05 07:15:50;;;;;;;0.67;0.67;;;14.30;99.90;;;;;;4999594;28;20206;-81
2022/05/05 07:18:16;;;;;;;1.50;0.80;;;14.10;99.90;;;;;;5014021;28;20667;-80
2022/05/05 07:20:43;;;;;;;1.20;0.77;;;14.20;99.90;;;;;;5000019;28;20540;-81
2022/05/05 07:23:12;;;;;;;0.70;0.70;;;14.10;99.90;;;;;;4996713;28;20241;-83
2022/05/05 07:25:39;;;;;;;0.67;0.50;;;14.20;99.90;;;;;;4998350;28;21221;-82
2022/05/05 07:28:05;;;;;;;3.40;0.70;;;14.40;99.90;;;;;;4996674;28;20504;-82
2022/05/05 07:30:31;;;;;;;0.50;0.50;;;14.60;99.90;;;;;;5010285;28;20286;-82
2022/05/05 07:32:56;;;;;;;0.53;0.53;;;14.80;99.90;;;;;;4998115;28;20204;-82
2022/05/05 07:35:22;;;;;;;0.53;0.53;;;15.00;99.90;;;;;;5002069;28;20212;-82
2022/05/05 07:37:47;;;;;;;0.70;0.70;;;15.20;99.90;;;;;;4997175;28;20680;-82
2022/05/05 07:40:13;;;;;;;1.33;0.90;;;15.20;99.90;;;;;;4999616;28;20288;-82
2022/05/05 07:42:41;;;;;;;1.47;1.37;;;15.40;99.90;;;;;;4997988;28;20207;-83
2022/05/05 07:45:07;;;;;;;2.97;1.37;;;15.50;99.90;;;;;;4998398;28;20240;-82
2022/05/05 07:47:33;;;;;;;2.03;1.93;;;15.60;99.90;;;;;;4997804;28;20628;-82
2022/05/05 07:50:00;;;;;;;0.70;0.70;;;15.80;99.90;;;;;;5002887;28;20182;-82
2022/05/05 07:52:26;;;;;;;1.97;0.90;;;16.00;99.90;;;;;;5012287;28;20218;-82
2022/05/05 07:54:52;;;;;;;4.40;0.80;;;16.00;99.90;;;;;;5010561;28;20195;-82
2022/05/05 07:57:20;;;;;;;1.27;1.17;;;16.20;99.90;;;;;;4999252;28;20216;-82
2022/05/05 07:59:46;;;;;;;0.73;0.73;;;16.30;99.90;;;;;;5000347;28;20191;-82
2022/05/05 08:02:15;;;;;;;0.77;0.77;;;16.50;99.90;;;;;;4998851;28;20215;-82
2022/05/05 08:04:42;;;;;;;5.00;1.43;;;16.60;99.90;;;;;;5003627;28;20207;-81
2022/05/05 08:07:08;;;;;;;0.80;0.80;;;16.80;99.90;;;;;;4998776;28;22150;-82
2022/05/05 08:09:34;;;;;;;1.13;1.00;;;16.70;99.90;;;;;;5012902;28;20206;-82
2022/05/05 08:12:00;;;;;;;3.10;1.67;;;16.80;99.90;;;;;;4999180;28;20323;-82
2022/05/05 08:14:26;;;;;;;1.20;1.03;;;16.70;99.90;;;;;;5003277;28;20187;-82
2022/05/05 08:16:52;;;;;;;7.03;1.57;;;16.90;99.90;;;;;;5006218;28;21347;-81
2022/05/05 08:19:20;;;;;;;6.37;1.27;;;16.90;99.90;;;;;;4989573;28;20214;-81
2022/05/05 08:21:46;;;;;;;0.67;0.67;;;16.80;99.90;;;;;;4988292;28;20293;-80
2022/05/05 08:29:40;;;;;;;0.53;0.53;;;16.80;99.90;;;;;;5000007;28;20212;-81
2022/05/05 08:32:06;;;;;;;1.23;1.13;;;16.90;99.90;;;;;;5002344;28;20253;-80
2022/05/05 08:34:32;;;;;;;0.90;0.63;;;16.90;99.90;;;;;;4997415;28;20202;-81
2022/05/05 08:36:57;;;;;;;1.10;0.83;;;16.90;99.90;;;;;;4996823;28;20188;-80
2022/05/05 08:39:23;;;;;;;0.87;0.60;;;17.00;99.90;;;;;;4996031;28;20266;-81
2022/05/05 08:41:48;;;;;;;4.37;1.10;;;17.00;99.90;;;;;;4995120;28;20195;-81
2022/05/05 08:44:14;;;;;;;1.00;0.70;;;17.30;99.90;;;;;;4996895;28;20687;-80
2022/05/05 08:46:40;;;;;;;1.80;1.17;;;17.50;99.90;;;;;;4997425;28;20229;-80
2022/05/05 08:49:06;;;;;;;0.80;0.80;;;17.60;99.90;;;;;;5007451;28;20226;-80
2022/05/05 08:51:42;;;;;;;2.10;2.00;;;17.90;99.90;;;;;;4996955;28;20184;-81
2022/05/05 08:54:12;;;;;;;0.87;0.77;;;18.20;99.90;;;;;;4992883;28;20206;-82
2022/05/05 08:56:39;;;;;;;0.90;0.83;;;18.10;99.90;;;;;;4992719;28;20258;-82
2022/05/05 08:59:07;;;;;;;0.63;0.63;;;18.30;99.90;;;;;;5010669;28;20237;-82
2022/05/05 09:01:38;;;;;;;0.50;0.50;;;18.20;99.90;;;;;;5013114;28;20182;-82
2022/05/05 09:04:05;;;;;;;0.47;0.47;;;18.40;99.90;;;;;;5012250;28;20184;-82
2022/05/05 09:06:51;;;;;;;0.83;0.83;;;18.40;99.90;;;;;;4961063;28;1012297;-82
2022/05/05 09:09:28;;;;;;;2.30;0.90;;;18.70;99.90;;;;;;5005056;28;20192;-82
2022/05/05 09:12:14;;;;;;;1.13;0.80;;;18.80;99.90;;;;;;5004310;28;20205;-81
2022/05/05 09:14:53;;;;;;;0.40;0.40;;;18.90;99.90;;;;;;5013422;28;20203;-81
2022/05/05 09:17:19;;;;;;;0.90;0.73;;;18.90;99.90;;;;;;4996928;28;20184;-81
2022/05/05 09:19:47;;;;;;;1.57;0.50;;;19.00;99.90;;;;;;5001516;28;20193;-81
2022/05/05 09:22:16;;;;;;;0.50;0.50;;;18.90;99.90;;;;;;4995435;28;20211;-82
2022/05/05 09:24:46;;;;;;;1.93;0.93;;;18.90;99.90;;;;;;4999860;28;20201;-82
2022/05/05 09:27:33;;;;;;;1.60;0.77;;;19.00;99.90;;;;;;4995574;28;20563;-82
2022/05/05 09:30:08;;;;;;;1.00;0.70;;;18.40;99.90;;;;;;4998470;28;20189;-82
2022/05/05 09:32:38;;;;;;;0.80;0.80;;;18.60;99.90;;;;;;4996296;28;20218;-83
2022/05/05 09:35:06;;;;;;;0.63;0.60;;;18.50;99.90;;;;;;5001075;28;20179;-82
2022/05/05 09:37:32;;;;;;;1.53;0.70;;;18.80;99.90;;;;;;4996743;28;20193;-82
2022/05/05 09:39:59;;;;;;;0.80;0.80;;;18.90;99.90;;;;;;4998440;28;20194;-82
2022/05/05 09:42:55;;;;;;;1.17;0.63;;;18.70;99.90;;;;;;4995240;28;20212;-85
2022/05/05 09:45:24;;;;;;;0.97;0.97;;;18.70;99.90;;;;;;4993439;28;20199;-84
2022/05/05 09:47:51;;;;;;;0.50;0.50;;;18.80;99.90;;;;;;5010395;28;20234;-82
2022/05/05 09:50:19;;;;;;;0.40;0.40;;;18.70;99.90;;;;;;4995134;28;20214;-82
2022/05/05 09:58:16;;;;;;;2.00;0.97;;;18.60;99.90;;;;;;4992045;28;20241;-81
2022/05/05 10:00:46;;;;;;;1.03;0.87;;;18.80;99.90;;;;;;4995000;28;20187;-81
2022/05/05 10:06:03;;;;;;;0.57;0.53;;;18.70;99.90;;;;;;4997699;28;20194;-81
2022/05/05 10:08:45;;;;;;;0.90;0.90;;;18.80;99.90;;;;;;5000157;28;20203;-81
2022/05/05 10:11:14;;;;;;;1.27;1.00;;;18.90;99.90;;;;;;5004171;28;20310;-81
2022/05/05 10:13:40;;;;;;;0.43;0.40;;;18.20;99.90;;;;;;4998169;28;20738;-81
2022/05/05 10:16:06;;;;;;;1.07;1.03;;;18.20;99.90;;;;;;5001256;28;20223;-81
2022/05/05 10:18:35;;;;;;;0.90;0.90;;;17.90;99.90;;;;;;4999760;28;20199;-81
2022/05/05 10:21:01;;;;;;;2.13;1.43;;;17.50;99.90;;;;;;4999661;28;20570;-81
2022/05/05 10:23:42;;;;;;;1.50;0.50;;;17.40;99.90;;;;;;4998539;28;20203;-81
2022/05/05 10:26:10;;;;;;;0.37;0.37;;;17.90;99.90;;;;;;4999743;28;20305;-81
2022/05/05 10:28:40;;;;;;;0.67;0.67;;;18.40;99.90;;;;;;4999391;28;20214;-81
2022/05/05 10:31:34;;;;;;;0.33;0.33;;;18.70;99.90;;;;;;4998790;28;20194;-79
2022/05/05 10:34:12;;;;;;;0.50;0.50;;;18.70;99.90;;;;;;4998175;28;20184;-79
2022/05/05 10:36:38;;;;;;;0.77;0.77;;;18.50;99.90;;;;;;5014075;28;20179;-81
2022/05/05 10:39:22;;;;;;;0.40;0.40;;;18.80;99.90;;;;;;4996882;28;20187;-81
2022/05/05 10:41:48;;;;;;;0.30;0.30;;;19.10;99.90;;;;;;5002313;28;20226;-81
2022/05/05 10:44:20;;;;;;;0.63;0.63;;;19.00;99.90;;;;;;5003910;28;20195;-81
2022/05/05 10:47:06;;;;;;;0.80;0.67;;;19.00;99.90;;;;;;5014810;28;20249;-81
2022/05/05 10:49:37;;;;;;;0.67;0.67;;;18.70;99.90;;;;;;5002983;28;20204;-82
2022/05/05 10:52:11;;;;;;;1.13;0.77;;;19.10;99.90;;;;;;5012645;28;20204;-82
2022/05/05 10:54:44;;;;;;;0.47;0.40;;;19.40;99.90;;;;;;5014675;28;20277;-83
2022/05/05 10:57:25;;;;;;;0.40;0.40;;;19.80;99.90;;;;;;4998486;28;20179;-83
2022/05/05 11:00:11;;;;;;;1.37;0.73;;;19.70;99.90;;;;;;4997930;28;20175;-85
2022/05/05 11:02:38;;;;;;;1.33;0.50;;;19.80;99.90;;;;;;5010092;28;20298;-85
2022/05/05 11:05:27;;;;;;;1.00;0.90;;;19.90;99.90;;;;;;4996800;28;20179;-85
2022/05/05 11:07:54;;;;;;;0.50;0.47;;;19.90;99.90;;;;;;4998700;28;20207;-85
2022/05/05 11:10:38;;;;;;;0.40;0.40;;;20.20;99.90;;;;;;5013278;28;20553;-84
2022/05/05 11:13:04;;;;;;;0.43;0.43;;;19.90;99.90;;;;;;5012672;28;20238;-80
2022/05/05 11:21:35;;;;;;;0.47;0.47;;;20.40;99.90;;;;;;4998484;28;20253;-82
2022/05/05 11:24:02;;;;;;;1.43;1.13;;;19.40;99.90;;;;;;4999390;28;20233;-81
2022/05/05 11:26:28;;;;;;;1.97;1.33;;;19.00;99.90;;;;;;4998403;28;20180;-81
2022/05/05 11:28:53;;;;;;;1.10;1.00;;;19.20;99.90;;;;;;4998852;28;20212;-81
2022/05/05 11:31:23;;;;;;;0.50;0.50;;;18.80;99.90;;;;;;4999161;28;20177;-81
2022/05/05 11:34:00;;;;;;;0.50;0.50;;;19.60;99.90;;;;;;4996415;28;20209;-82
2022/05/05 11:36:32;;;;;;;1.23;0.93;;;19.60;99.90;;;;;;4998282;28;20218;-81
2022/05/05 11:38:59;;;;;;;0.60;0.60;;;19.20;99.90;;;;;;4996896;28;20187;-81
2022/05/05 11:41:25;;;;;;;1.40;0.90;;;19.00;99.90;;;;;;4999758;28;20299;-81
2022/05/05 11:46:36;;;;;;;1.27;0.90;;;18.80;99.90;;;;;;4998913;28;20600;-82
2022/05/05 11:49:02;;;;;;;0.57;0.57;;;19.70;99.90;;;;;;4999248;28;20200;-81
2022/05/05 11:51:34;;;;;;;0.60;0.60;;;19.60;99.90;;;;;;4997197;28;20740;-81
2022/05/05 11:54:11;;;;;;;1.17;1.00;;;20.00;99.90;;;;;;5000329;28;20205;-81
2022/05/05 11:56:43;;;;;;;4.60;1.10;;;19.40;99.90;;;;;;5002124;28;20210;-81
2022/05/05 12:02:12;;;;;;;1.30;0.90;;;19.70;99.90;;;;;;5005186;28;20225;-81
2022/05/05 12:04:44;;;;;;;0.60;0.60;;;19.90;99.90;;;;;;4997225;28;20240;-81
2022/05/05 12:07:19;;;;;;;0.83;0.83;;;19.70;99.90;;;;;;4997025;28;20221;-81
2022/05/05 12:09:49;;;;;;;2.33;0.63;;;19.50;99.90;;;;;;4996427;28;20288;-80
2022/05/05 12:12:23;;;;;;;1.57;0.83;;;19.80;99.90;;;;;;5010993;28;20261;-81
2022/05/05 12:14:51;;;;;;;0.60;0.60;;;20.20;99.90;;;;;;4998986;28;20183;-81
2022/05/05 12:17:21;;;;;;;1.07;1.03;;;19.50;99.90;;;;;;4998442;28;21237;-81
2022/05/05 12:19:52;;;;;;;0.87;0.87;;;19.30;99.90;;;;;;4999562;28;20270;-81
2022/05/05 12:22:57;;;;;;;1.23;1.13;;;19.30;99.90;;;;;;4996736;28;22108;-81
2022/05/05 12:25:25;;;;;;;1.03;1.03;;;19.30;99.90;;;;;;4998918;28;20199;-81
2022/05/05 12:27:53;;;;;;;0.93;0.93;;;19.40;99.90;;;;;;4999441;28;20217;-84
2022/05/05 12:30:42;;;;;;;0.60;0.60;;;19.40;99.90;;;;;;5013555;28;20803;-84
2022/05/05 12:33:12;;;;;;;1.00;0.50;;;19.90;99.90;;;;;;4996016;28;20291;-84
2022/05/05 12:35:41;;;;;;;1.43;0.77;;;19.70;99.90;;;;;;5004729;28;20258;-84
2022/05/05 12:38:09;;;;;;;0.57;0.57;;;19.80;99.90;;;;;;4999015;28;20182;-85
2022/05/05 12:40:41;;;;;;;0.93;0.80;;;20.20;99.90;;;;;;5016571;28;20199;-83
2022/05/05 12:43:11;;;;;;;0.63;0.63;;;20.50;99.90;;;;;;5004436;28;20619;-84
2022/05/05 12:45:37;;;;;;;0.53;0.53;;;20.80;99.90;;;;;;4996754;28;20183;-84
2022/05/05 12:48:05;;;;;;;0.30;0.30;;;20.70;99.90;;;;;;5017537;28;20277;-84
2022/05/05 12:50:33;;;;;;;1.43;0.83;;;20.40;99.90;;;;;;4996688;28;20650;-83
2022/05/05 13:01:44;;;;;;;0.50;0.50;;;21.00;99.90;;;;;;4995232;28;20237;-82
2022/05/05 13:04:14;;;;;;;2.13;1.43;;;21.40;99.90;;;;;;5012342;28;20221;-85
2022/05/05 13:06:41;;;;;;;1.83;0.80;;;20.30;99.90;;;;;;4996976;28;20259;-85
2022/05/05 13:09:10;;;;;;;1.53;1.53;;;20.10;99.90;;;;;;4998569;28;20710;-84
2022/05/05 13:11:42;;;;;;;3.60;0.83;;;20.60;99.90;;;;;;4998259;28;20214;-84
2022/05/05 13:14:08;;;;;;;1.07;0.97;;;20.90;99.90;;;;;;5004028;28;20186;-84
2022/05/05 13:16:35;;;;;;;2.60;0.53;;;21.30;99.90;;;;;;5000302;28;20183;-85
2022/05/05 13:19:04;;;;;;;1.00;0.87;;;22.00;99.90;;;;;;4999132;28;20183;-84
2022/05/05 13:21:32;;;;;;;0.50;0.50;;;21.80;99.90;;;;;;5019412;28;20183;-85
2022/05/05 13:23:57;;;;;;;1.00;0.90;;;21.30;99.90;;;;;;5012691;28;20290;-84
2022/05/05 13:26:23;;;;;;;1.40;1.13;;;20.60;99.90;;;;;;5001525;28;20304;-85
2022/05/05 13:28:49;;;;;;;1.73;0.80;;;20.50;99.90;;;;;;4999164;28;20605;-84
2022/05/05 13:31:14;;;;;;;0.60;0.60;;;20.90;99.90;;;;;;5001146;28;20206;-84
2022/05/05 13:33:41;;;;;;;1.73;1.63;;;21.80;99.90;;;;;;5004942;28;20261;-85
2022/05/05 13:36:07;;;;;;;0.90;0.90;;;22.00;99.90;;;;;;4996811;28;20222;-85
2022/05/05 13:38:33;;;;;;;1.03;1.03;;;21.50;99.90;;;;;;4999601;28;20199;-84
2022/05/05 13:40:58;;;;;;;2.60;1.67;;;21.20;99.90;;;;;;5002996;28;20187;-85
2022/05/05 13:43:24;;;;;;;1.20;0.70;;;21.20;99.90;;;;;;5000971;28;20213;-84